TimePST,TemperatureF,Dew PointF,Humidity,Sea Level PressureIn,VisibilityMPH,Wind Direction,Wind SpeedMPH,Gust SpeedMPH,PrecipitationIn,Events,Conditions,WindDirDegrees,DateUTC
12:00 AM,45.0,42.6,91,30.27,-9999.0,SSE,8.1,-,N/A,,Unknown,150,2013-02-10 08:00:00
1:00 AM,44.4,42.1,91,30.27,-9999.0,SE,9.2,-,N/A,,Unknown,130,2013-02-10 09:00:00
2:00 AM,45.0,42.4,91,30.27,-9999.0,South,15.0,-,N/A,,Unknown,170,2013-02-10 10:00:00
3:00 AM,45.1,42.4,90,30.26,-9999.0,South,19.6,-,N/A,,Unknown,170,2013-02-10 11:00:00
4:00 AM,44,43,93,30.25,,South,21.9,,,,,170,2013-02-10 12:00:00
4:00 AM,44.4,42.6,93,30.25,-9999.0,South,21.9,-,N/A,,Unknown,170,2013-02-10 12:00:00
5:00 AM,43.3,42.3,96,30.25,-9999.0,South,19.6,-,0.01,,Unknown,170,2013-02-10 13:00:00
6:00 AM,44.1,42.3,93,30.21,-9999.0,SSE,23.0,-,N/A,,Unknown,160,2013-02-10 14:00:00
7:00 AM,44.6,42.3,91,30.19,-9999.0,South,23.0,-,N/A,,Unknown,170,2013-02-10 15:00:00
8:00 AM,45.0,40.6,85,30.15,-9999.0,South,33.4,-,N/A,,Unknown,170,2013-02-10 16:00:00
9:00 AM,45.1,40.8,85,30.14,-9999.0,South,33.4,-,N/A,,Unknown,180,2013-02-10 17:00:00
10:00 AM,45,40,77,30.15,,South,34.5,,,,,190,2013-02-10 18:00:00
10:00 AM,45.0,40.1,83,30.15,-9999.0,South,34.5,40.3,N/A,,Unknown,190,2013-02-10 18:00:00
11:00 AM,44.1,41.2,90,30.17,-9999.0,South,27.6,-,0.02,,Unknown,190,2013-02-10 19:00:00
12:00 PM,43.9,41.7,92,30.16,-9999.0,South,32.2,-,0.02,,Unknown,170,2013-02-10 20:00:00
1:00 PM,43.7,42.4,95,30.16,-9999.0,South,31.1,-,0.03,,Unknown,170,2013-02-10 21:00:00
2:00 PM,43.7,42.6,96,30.16,-9999.0,South,26.5,-,0.03,,Unknown,170,2013-02-10 22:00:00
3:00 PM,43.2,42.3,97,30.15,-9999.0,South,29.9,-,0.02,,Unknown,170,2013-02-10 23:00:00
4:00 PM,43,42,95,30.17,,South,25.3,,,,,180,2013-02-11 00:00:00
4:00 PM,42.8,42.1,97,30.17,-9999.0,South,25.3,-,0.05,,Unknown,180,2013-02-11 00:00:00
5:00 PM,42.6,41.5,96,30.16,-9999.0,WNW,1.2,-,0.08,,Unknown,300,2013-02-11 01:00:00
6:00 PM,42.8,41.4,95,30.17,-9999.0,South,13.8,-,N/A,,Unknown,170,2013-02-11 02:00:00
7:00 PM,43.3,41.5,93,30.17,-9999.0,SSW,8.1,-,N/A,,Unknown,200,2013-02-11 03:00:00
8:00 PM,43.2,39.6,87,30.17,-9999.0,SW,5.8,-,N/A,,Unknown,230,2013-02-11 04:00:00
9:00 PM,43.3,39.4,86,30.16,-9999.0,SSW,6.9,-,N/A,,Unknown,200,2013-02-11 05:00:00
10:00 PM,43,40,85,30.16,,South,8.1,,,,,190,2013-02-11 06:00:00
10:00 PM,43.3,40.1,88,30.16,-9999.0,South,8.1,-,N/A,,Unknown,190,2013-02-11 06:00:00
11:00 PM,43.5,41.2,91,30.16,-9999.0,South,9.2,-,N/A,,Unknown,180,2013-02-11 07:00:00